sensor_id;sensor_type;location;lat;lon;timestamp;temperature;humidity
71304;DHT22;59091;47.446;19.148;2024-02-28T00:01:52;13.39;65.66
71304;DHT22;59091;47.446;19.148;2024-02-28T00:04:18;13.39;66.01
71304;DHT22;59091;47.446;19.148;2024-02-28T00:06:44;13.34;66.07
71304;DHT22;59091;47.446;19.148;2024-02-28T00:09:11;13.26;65.86
71304;DHT22;59091;47.446;19.148;2024-02-28T00:11:46;13.21;65.64
71304;DHT22;59091;47.446;19.148;2024-02-28T00:14:12;13.28;65.62
71304;DHT22;59091;47.446;19.148;2024-02-28T00:16:41;13.31;66.07
71304;DHT22;59091;47.446;19.148;2024-02-28T00:19:07;13.34;66.27
71304;DHT22;59091;47.446;19.148;2024-02-28T00:21:33;13.36;66.20
71304;DHT22;59091;47.446;19.148;2024-02-28T00:23:58;13.30;66.17
71304;DHT22;59091;47.446;19.148;2024-02-28T00:26:23;13.30;66.46
71304;DHT22;59091;47.446;19.148;2024-02-28T00:28:49;13.27;66.45
71304;DHT22;59091;47.446;19.148;2024-02-28T00:31:14;13.24;66.48
71304;DHT22;59091;47.446;19.148;2024-02-28T00:33:40;13.23;66.66
71304;DHT22;59091;47.446;19.148;2024-02-28T00:36:05;13.16;66.69
71304;DHT22;59091;47.446;19.148;2024-02-28T00:38:31;13.17;66.57
71304;DHT22;59091;47.446;19.148;2024-02-28T00:40:56;13.11;66.65
71304;DHT22;59091;47.446;19.148;2024-02-28T00:43:21;13.13;66.61
71304;DHT22;59091;47.446;19.148;2024-02-28T00:45:47;13.09;66.72
71304;DHT22;59091;47.446;19.148;2024-02-28T00:48:12;13.02;67.05
71304;DHT22;59091;47.446;19.148;2024-02-28T00:50:37;13.03;67.05
71304;DHT22;59091;47.446;19.148;2024-02-28T00:53:03;13.00;67.16
71304;DHT22;59091;47.446;19.148;2024-02-28T00:55:29;12.96;67.31
71304;DHT22;59091;47.446;19.148;2024-02-28T00:57:54;12.95;67.32
71304;DHT22;59091;47.446;19.148;2024-02-28T01:00:19;12.92;67.28
71304;DHT22;59091;47.446;19.148;2024-02-28T01:02:45;12.90;67.64
71304;DHT22;59091;47.446;19.148;2024-02-28T01:05:10;12.85;67.80
71304;DHT22;59091;47.446;19.148;2024-02-28T01:07:36;12.85;67.80
71304;DHT22;59091;47.446;19.148;2024-02-28T01:10:02;12.83;67.71
71304;DHT22;59091;47.446;19.148;2024-02-28T01:12:28;12.79;67.79
71304;DHT22;59091;47.446;19.148;2024-02-28T01:14:53;12.79;67.62
71304;DHT22;59091;47.446;19.148;2024-02-28T01:17:19;12.73;67.63
71304;DHT22;59091;47.446;19.148;2024-02-28T01:19:44;12.70;67.73
71304;DHT22;59091;47.446;19.148;2024-02-28T01:22:10;12.70;67.61
71304;DHT22;59091;47.446;19.148;2024-02-28T01:24:35;12.70;67.59
71304;DHT22;59091;47.446;19.148;2024-02-28T01:27:02;12.70;67.64
71304;DHT22;59091;47.446;19.148;2024-02-28T01:29:28;12.68;67.72
71304;DHT22;59091;47.446;19.148;2024-02-28T01:31:53;12.60;67.76
71304;DHT22;59091;47.446;19.148;2024-02-28T01:34:19;12.62;67.71
71304;DHT22;59091;47.446;19.148;2024-02-28T01:36:44;12.59;67.73
71304;DHT22;59091;47.446;19.148;2024-02-28T01:39:10;12.62;67.64
71304;DHT22;59091;47.446;19.148;2024-02-28T01:41:35;12.62;67.67
71304;DHT22;59091;47.446;19.148;2024-02-28T01:44:00;12.60;67.94
71304;DHT22;59091;47.446;19.148;2024-02-28T01:46:27;12.60;67.93
71304;DHT22;59091;47.446;19.148;2024-02-28T01:48:54;12.60;67.79
71304;DHT22;59091;47.446;19.148;2024-02-28T01:51:22;12.55;67.91
71304;DHT22;59091;47.446;19.148;2024-02-28T01:53:50;12.50;67.69
71304;DHT22;59091;47.446;19.148;2024-02-28T01:56:16;12.55;67.58
71304;DHT22;59091;47.446;19.148;2024-02-28T01:58:46;12.48;67.46
71304;DHT22;59091;47.446;19.148;2024-02-28T02:01:14;12.46;67.30
71304;DHT22;59091;47.446;19.148;2024-02-28T02:03:40;12.38;67.19
71304;DHT22;59091;47.446;19.148;2024-02-28T02:06:05;12.42;67.24
71304;DHT22;59091;47.446;19.148;2024-02-28T02:08:32;12.39;67.14
71304;DHT22;59091;47.446;19.148;2024-02-28T02:10:58;12.38;67.03
71304;DHT22;59091;47.446;19.148;2024-02-28T02:13:23;12.41;67.14
71304;DHT22;59091;47.446;19.148;2024-02-28T02:15:49;12.38;67.10
71304;DHT22;59091;47.446;19.148;2024-02-28T02:18:14;12.27;67.41
71304;DHT22;59091;47.446;19.148;2024-02-28T02:20:44;12.25;67.36
71304;DHT22;59091;47.446;19.148;2024-02-28T02:23:10;12.25;67.46
71304;DHT22;59091;47.446;19.148;2024-02-28T02:25:44;12.22;67.36
71304;DHT22;59091;47.446;19.148;2024-02-28T02:28:10;12.22;67.63
71304;DHT22;59091;47.446;19.148;2024-02-28T02:30:35;12.24;67.53
71304;DHT22;59091;47.446;19.148;2024-02-28T02:33:00;12.20;67.42
71304;DHT22;59091;47.446;19.148;2024-02-28T02:35:26;12.17;67.36
71304;DHT22;59091;47.446;19.148;2024-02-28T02:37:51;12.21;67.32
71304;DHT22;59091;47.446;19.148;2024-02-28T02:40:16;12.21;67.17
71304;DHT22;59091;47.446;19.148;2024-02-28T02:42:42;12.22;67.15
71304;DHT22;59091;47.446;19.148;2024-02-28T02:45:08;12.10;67.42
71304;DHT22;59091;47.446;19.148;2024-02-28T02:47:33;12.04;67.50
71304;DHT22;59091;47.446;19.148;2024-02-28T02:49:59;12.05;67.57
71304;DHT22;59091;47.446;19.148;2024-02-28T02:52:24;12.11;67.56
71304;DHT22;59091;47.446;19.148;2024-02-28T02:54:49;12.17;67.67
71304;DHT22;59091;47.446;19.148;2024-02-28T02:57:15;12.14;67.66
71304;DHT22;59091;47.446;19.148;2024-02-28T02:59:40;12.16;67.53
71304;DHT22;59091;47.446;19.148;2024-02-28T03:02:06;11.98;67.71
71304;DHT22;59091;47.446;19.148;2024-02-28T03:04:31;12.02;67.61
71304;DHT22;59091;47.446;19.148;2024-02-28T03:06:56;12.07;67.54
71304;DHT22;59091;47.446;19.148;2024-02-28T03:09:22;12.11;67.39
71304;DHT22;59091;47.446;19.148;2024-02-28T03:11:47;12.02;67.59
71304;DHT22;59091;47.446;19.148;2024-02-28T03:14:13;12.13;67.32
71304;DHT22;59091;47.446;19.148;2024-02-28T03:16:42;11.97;67.53
71304;DHT22;59091;47.446;19.148;2024-02-28T03:19:08;12.05;67.31
71304;DHT22;59091;47.446;19.148;2024-02-28T03:21:34;12.01;67.47
71304;DHT22;59091;47.446;19.148;2024-02-28T03:24:00;12.08;67.55
71304;DHT22;59091;47.446;19.148;2024-02-28T03:26:26;12.01;67.34
71304;DHT22;59091;47.446;19.148;2024-02-28T03:28:51;12.07;67.39
71304;DHT22;59091;47.446;19.148;2024-02-28T03:31:16;12.02;67.28
71304;DHT22;59091;47.446;19.148;2024-02-28T03:33:42;12.10;67.13
71304;DHT22;59091;47.446;19.148;2024-02-28T03:36:07;12.14;67.16
71304;DHT22;59091;47.446;19.148;2024-02-28T03:38:33;12.13;67.10
71304;DHT22;59091;47.446;19.148;2024-02-28T03:40:58;12.10;67.05
71304;DHT22;59091;47.446;19.148;2024-02-28T03:43:23;12.11;66.92
71304;DHT22;59091;47.446;19.148;2024-02-28T03:45:49;12.08;66.98
71304;DHT22;59091;47.446;19.148;2024-02-28T03:48:15;12.07;66.94
71304;DHT22;59091;47.446;19.148;2024-02-28T03:50:40;12.11;66.86
71304;DHT22;59091;47.446;19.148;2024-02-28T03:53:06;12.04;66.91
71304;DHT22;59091;47.446;19.148;2024-02-28T03:55:31;12.05;66.89
71304;DHT22;59091;47.446;19.148;2024-02-28T03:57:57;12.07;66.87
71304;DHT22;59091;47.446;19.148;2024-02-28T04:00:23;12.07;66.89
71304;DHT22;59091;47.446;19.148;2024-02-28T04:02:48;12.10;66.80
71304;DHT22;59091;47.446;19.148;2024-02-28T04:05:14;12.07;67.00
71304;DHT22;59091;47.446;19.148;2024-02-28T04:07:39;12.08;67.12
71304;DHT22;59091;47.446;19.148;2024-02-28T04:10:05;12.11;67.04
71304;DHT22;59091;47.446;19.148;2024-02-28T04:12:31;12.14;66.88
71304;DHT22;59091;47.446;19.148;2024-02-28T04:14:56;12.02;67.08
71304;DHT22;59091;47.446;19.148;2024-02-28T04:17:22;12.01;67.23
71304;DHT22;59091;47.446;19.148;2024-02-28T04:19:47;11.98;67.37
71304;DHT22;59091;47.446;19.148;2024-02-28T04:22:13;12.00;67.32
71304;DHT22;59091;47.446;19.148;2024-02-28T04:24:38;12.04;67.36
71304;DHT22;59091;47.446;19.148;2024-02-28T04:27:03;12.05;67.37
71304;DHT22;59091;47.446;19.148;2024-02-28T04:29:31;12.07;66.90
71304;DHT22;59091;47.446;19.148;2024-02-28T04:31:56;11.98;66.76
71304;DHT22;59091;47.446;19.148;2024-02-28T04:34:22;12.01;66.76
71304;DHT22;59091;47.446;19.148;2024-02-28T04:36:47;11.95;66.77
71304;DHT22;59091;47.446;19.148;2024-02-28T04:39:12;11.93;66.77
71304;DHT22;59091;47.446;19.148;2024-02-28T04:41:38;11.84;67.12
71304;DHT22;59091;47.446;19.148;2024-02-28T04:44:03;11.80;67.23
71304;DHT22;59091;47.446;19.148;2024-02-28T04:46:29;11.87;67.10
71304;DHT22;59091;47.446;19.148;2024-02-28T04:48:54;11.90;67.04
71304;DHT22;59091;47.446;19.148;2024-02-28T04:51:19;11.88;67.22
71304;DHT22;59091;47.446;19.148;2024-02-28T04:53:45;11.87;67.25
71304;DHT22;59091;47.446;19.148;2024-02-28T04:56:10;11.70;67.46
71304;DHT22;59091;47.446;19.148;2024-02-28T04:58:36;11.73;67.59
71304;DHT22;59091;47.446;19.148;2024-02-28T05:01:02;11.67;67.50
71304;DHT22;59091;47.446;19.148;2024-02-28T05:03:28;11.73;67.50
71304;DHT22;59091;47.446;19.148;2024-02-28T05:05:54;11.71;67.64
71304;DHT22;59091;47.446;19.148;2024-02-28T05:08:20;11.77;67.42
71304;DHT22;59091;47.446;19.148;2024-02-28T05:10:46;11.77;67.56
71304;DHT22;59091;47.446;19.148;2024-02-28T05:13:11;11.78;67.55
71304;DHT22;59091;47.446;19.148;2024-02-28T05:15:37;11.77;67.45
71304;DHT22;59091;47.446;19.148;2024-02-28T05:18:02;11.76;67.10
71304;DHT22;59091;47.446;19.148;2024-02-28T05:20:28;11.83;67.06
71304;DHT22;59091;47.446;19.148;2024-02-28T05:22:53;11.84;67.16
71304;DHT22;59091;47.446;19.148;2024-02-28T05:25:18;11.86;67.15
71304;DHT22;59091;47.446;19.148;2024-02-28T05:27:44;11.88;67.99
71304;DHT22;59091;47.446;19.148;2024-02-28T05:30:10;12.20;76.29
71304;DHT22;59091;47.446;19.148;2024-02-28T05:32:35;12.05;67.80
71304;DHT22;59091;47.446;19.148;2024-02-28T05:35:01;12.13;67.16
71304;DHT22;59091;47.446;19.148;2024-02-28T05:37:29;12.10;66.77
71304;DHT22;59091;47.446;19.148;2024-02-28T05:39:55;12.08;66.40
71304;DHT22;59091;47.446;19.148;2024-02-28T05:42:20;12.02;66.26
71304;DHT22;59091;47.446;19.148;2024-02-28T05:44:49;11.97;66.36
71304;DHT22;59091;47.446;19.148;2024-02-28T05:47:15;11.97;66.37
71304;DHT22;59091;47.446;19.148;2024-02-28T05:49:41;11.97;68.01
71304;DHT22;59091;47.446;19.148;2024-02-28T05:52:06;12.07;71.30
71304;DHT22;59091;47.446;19.148;2024-02-28T05:54:32;12.16;69.41
71304;DHT22;59091;47.446;19.148;2024-02-28T05:57:00;12.18;67.07
71304;DHT22;59091;47.446;19.148;2024-02-28T05:59:25;12.05;66.25
71304;DHT22;59091;47.446;19.148;2024-02-28T06:01:51;12.02;66.89
71304;DHT22;59091;47.446;19.148;2024-02-28T06:04:17;12.11;69.12
71304;DHT22;59091;47.446;19.148;2024-02-28T06:06:42;12.11;70.87
71304;DHT22;59091;47.446;19.148;2024-02-28T06:09:08;12.22;69.41
71304;DHT22;59091;47.446;19.148;2024-02-28T06:11:33;12.22;67.13
71304;DHT22;59091;47.446;19.148;2024-02-28T06:13:59;12.14;66.23
71304;DHT22;59091;47.446;19.148;2024-02-28T06:16:24;12.02;66.44
71304;DHT22;59091;47.446;19.148;2024-02-28T06:18:50;11.81;66.98
71304;DHT22;59091;47.446;19.148;2024-02-28T06:21:15;12.07;75.04
71304;DHT22;59091;47.446;19.148;2024-02-28T06:23:41;12.01;68.17
71304;DHT22;59091;47.446;19.148;2024-02-28T06:26:06;11.95;67.00
71304;DHT22;59091;47.446;19.148;2024-02-28T06:28:32;11.94;67.42
71304;DHT22;59091;47.446;19.148;2024-02-28T06:30:58;12.08;67.39
71304;DHT22;59091;47.446;19.148;2024-02-28T06:33:23;11.95;66.35
71304;DHT22;59091;47.446;19.148;2024-02-28T06:35:48;12.17;74.48
71304;DHT22;59091;47.446;19.148;2024-02-28T06:38:14;13.02;79.58
71304;DHT22;59091;47.446;19.148;2024-02-28T06:40:39;12.89;66.43
71304;DHT22;59091;47.446;19.148;2024-02-28T06:43:06;12.69;64.69
71304;DHT22;59091;47.446;19.148;2024-02-28T06:45:31;12.72;65.66
71304;DHT22;59091;47.446;19.148;2024-02-28T06:47:57;12.62;65.01
71304;DHT22;59091;47.446;19.148;2024-02-28T06:50:23;12.50;65.38
71304;DHT22;59091;47.446;19.148;2024-02-28T06:52:48;12.38;65.68
71304;DHT22;59091;47.446;19.148;2024-02-28T06:55:13;12.22;66.33
71304;DHT22;59091;47.446;19.148;2024-02-28T06:57:42;12.01;66.73
71304;DHT22;59091;47.446;19.148;2024-02-28T07:00:10;12.17;66.45
71304;DHT22;59091;47.446;19.148;2024-02-28T07:02:36;12.20;66.59
71304;DHT22;59091;47.446;19.148;2024-02-28T07:05:03;12.29;67.78
71304;DHT22;59091;47.446;19.148;2024-02-28T07:07:33;12.27;66.47
71304;DHT22;59091;47.446;19.148;2024-02-28T07:09:59;12.34;66.15
71304;DHT22;59091;47.446;19.148;2024-02-28T07:12:24;13.07;80.40
71304;DHT22;59091;47.446;19.148;2024-02-28T07:14:50;13.55;72.36
71304;DHT22;59091;47.446;19.148;2024-02-28T07:17:16;13.48;64.88
71304;DHT22;59091;47.446;19.148;2024-02-28T07:19:41;13.36;63.63
71304;DHT22;59091;47.446;19.148;2024-02-28T07:22:07;13.19;63.57
71304;DHT22;59091;47.446;19.148;2024-02-28T07:24:32;13.09;63.57
71304;DHT22;59091;47.446;19.148;2024-02-28T07:26:58;12.69;64.39
71304;DHT22;59091;47.446;19.148;2024-02-28T07:29:23;12.73;66.71
71304;DHT22;59091;47.446;19.148;2024-02-28T07:31:51;12.70;66.77
71304;DHT22;59091;47.446;19.148;2024-02-28T07:34:17;12.66;64.82
71304;DHT22;59091;47.446;19.148;2024-02-28T07:36:42;12.60;64.74
71304;DHT22;59091;47.446;19.148;2024-02-28T07:39:08;12.63;64.82
71304;DHT22;59091;47.446;19.148;2024-02-28T07:41:40;12.62;64.92
71304;DHT22;59091;47.446;19.148;2024-02-28T07:44:08;12.56;65.29
71304;DHT22;59091;47.446;19.148;2024-02-28T07:46:34;12.72;65.04
71304;DHT22;59091;47.446;19.148;2024-02-28T07:49:01;12.86;64.84
71304;DHT22;59091;47.446;19.148;2024-02-28T07:51:27;13.00;64.28
71304;DHT22;59091;47.446;19.148;2024-02-28T07:53:53;13.10;64.12
71304;DHT22;59091;47.446;19.148;2024-02-28T07:56:19;13.07;63.78
71304;DHT22;59091;47.446;19.148;2024-02-28T07:58:45;13.13;63.46
71304;DHT22;59091;47.446;19.148;2024-02-28T08:01:11;13.39;63.00
71304;DHT22;59091;47.446;19.148;2024-02-28T08:03:37;13.47;63.66
71304;DHT22;59091;47.446;19.148;2024-02-28T08:06:03;13.65;62.61
71304;DHT22;59091;47.446;19.148;2024-02-28T08:08:28;13.71;62.87
71304;DHT22;59091;47.446;19.148;2024-02-28T08:10:54;13.74;62.86
71304;DHT22;59091;47.446;19.148;2024-02-28T08:13:20;13.75;61.97
71304;DHT22;59091;47.446;19.148;2024-02-28T08:15:46;13.88;61.90
71304;DHT22;59091;47.446;19.148;2024-02-28T08:18:11;13.99;61.46
71304;DHT22;59091;47.446;19.148;2024-02-28T08:20:37;14.08;61.08
71304;DHT22;59091;47.446;19.148;2024-02-28T08:23:04;14.08;60.84
71304;DHT22;59091;47.446;19.148;2024-02-28T08:25:29;14.12;61.72
71304;DHT22;59091;47.446;19.148;2024-02-28T08:27:55;14.23;60.56
71304;DHT22;59091;47.446;19.148;2024-02-28T08:30:21;14.34;60.65
71304;DHT22;59091;47.446;19.148;2024-02-28T08:32:47;14.34;61.29
71304;DHT22;59091;47.446;19.148;2024-02-28T08:35:12;14.57;67.33
71304;DHT22;59091;47.446;19.148;2024-02-28T08:37:41;14.47;60.53
71304;DHT22;59091;47.446;19.148;2024-02-28T08:40:07;14.47;60.70
71304;DHT22;59091;47.446;19.148;2024-02-28T08:42:32;14.56;60.60
71304;DHT22;59091;47.446;19.148;2024-02-28T08:44:59;14.53;60.51
71304;DHT22;59091;47.446;19.148;2024-02-28T08:47:25;14.43;59.59
71304;DHT22;59091;47.446;19.148;2024-02-28T08:49:52;14.43;59.71
71304;DHT22;59091;47.446;19.148;2024-02-28T08:52:18;14.43;59.97
71304;DHT22;59091;47.446;19.148;2024-02-28T08:54:43;14.25;60.66
71304;DHT22;59091;47.446;19.148;2024-02-28T08:57:08;14.40;60.07
71304;DHT22;59091;47.446;19.148;2024-02-28T08:59:34;14.43;59.80
71304;DHT22;59091;47.446;19.148;2024-02-28T09:01:59;14.64;64.85
71304;DHT22;59091;47.446;19.148;2024-02-28T09:04:25;14.66;60.97
71304;DHT22;59091;47.446;19.148;2024-02-28T09:06:50;14.71;60.16
71304;DHT22;59091;47.446;19.148;2024-02-28T09:09:18;14.77;59.49
71304;DHT22;59091;47.446;19.148;2024-02-28T09:11:43;14.63;59.39
71304;DHT22;59091;47.446;19.148;2024-02-28T09:14:09;14.69;59.33
71304;DHT22;59091;47.446;19.148;2024-02-28T09:16:34;14.62;59.47
71304;DHT22;59091;47.446;19.148;2024-02-28T09:19:00;14.59;60.01
71304;DHT22;59091;47.446;19.148;2024-02-28T09:21:25;14.73;60.15
71304;DHT22;59091;47.446;19.148;2024-02-28T09:23:50;14.76;59.49
71304;DHT22;59091;47.446;19.148;2024-02-28T09:26:17;14.73;59.93
71304;DHT22;59091;47.446;19.148;2024-02-28T09:28:42;14.60;59.62
71304;DHT22;59091;47.446;19.148;2024-02-28T09:31:08;14.55;59.63
71304;DHT22;59091;47.446;19.148;2024-02-28T09:33:34;14.67;59.80
71304;DHT22;59091;47.446;19.148;2024-02-28T09:36:02;14.76;60.39
71304;DHT22;59091;47.446;19.148;2024-02-28T09:38:27;14.79;60.49
71304;DHT22;59091;47.446;19.148;2024-02-28T09:40:54;14.77;59.14
71304;DHT22;59091;47.446;19.148;2024-02-28T09:43:36;14.85;58.92
71304;DHT22;59091;47.446;19.148;2024-02-28T09:46:05;14.97;59.01
71304;DHT22;59091;47.446;19.148;2024-02-28T09:48:32;14.98;59.32
71304;DHT22;59091;47.446;19.148;2024-02-28T09:50:59;15.02;58.75
71304;DHT22;59091;47.446;19.148;2024-02-28T09:53:26;15.25;57.95
71304;DHT22;59091;47.446;19.148;2024-02-28T09:55:51;15.42;57.96
71304;DHT22;59091;47.446;19.148;2024-02-28T09:58:19;15.38;58.41
71304;DHT22;59091;47.446;19.148;2024-02-28T10:00:47;15.45;59.08
71304;DHT22;59091;47.446;19.148;2024-02-28T10:03:21;15.49;57.71
71304;DHT22;59091;47.446;19.148;2024-02-28T10:05:48;15.65;57.52
71304;DHT22;59091;47.446;19.148;2024-02-28T10:08:14;15.65;57.43
71304;DHT22;59091;47.446;19.148;2024-02-28T10:10:50;15.70;56.69
71304;DHT22;59091;47.446;19.148;2024-02-28T10:13:19;15.61;57.75
71304;DHT22;59091;47.446;19.148;2024-02-28T10:15:45;15.63;57.22
71304;DHT22;59091;47.446;19.148;2024-02-28T10:18:11;15.82;57.30
71304;DHT22;59091;47.446;19.148;2024-02-28T10:20:36;15.65;58.69
71304;DHT22;59091;47.446;19.148;2024-02-28T10:23:05;15.65;58.36
71304;DHT22;59091;47.446;19.148;2024-02-28T10:25:32;15.81;58.14
71304;DHT22;59091;47.446;19.148;2024-02-28T10:28:01;16.00;57.60
71304;DHT22;59091;47.446;19.148;2024-02-28T10:30:27;15.96;58.60
71304;DHT22;59091;47.446;19.148;2024-02-28T10:32:52;16.14;58.25
71304;DHT22;59091;47.446;19.148;2024-02-28T10:35:18;16.18;57.74
71304;DHT22;59091;47.446;19.148;2024-02-28T10:37:45;16.34;57.04
71304;DHT22;59091;47.446;19.148;2024-02-28T10:40:12;16.43;55.55
71304;DHT22;59091;47.446;19.148;2024-02-28T10:42:41;16.54;55.48
71304;DHT22;59091;47.446;19.148;2024-02-28T10:45:09;16.50;56.72
71304;DHT22;59091;47.446;19.148;2024-02-28T10:47:40;16.65;56.07
71304;DHT22;59091;47.446;19.148;2024-02-28T10:50:06;16.64;56.42
71304;DHT22;59091;47.446;19.148;2024-02-28T10:52:39;16.67;56.05
71304;DHT22;59091;47.446;19.148;2024-02-28T10:55:08;16.78;55.81
71304;DHT22;59091;47.446;19.148;2024-02-28T10:57:36;16.92;61.84
71304;DHT22;59091;47.446;19.148;2024-02-28T11:00:03;16.89;55.46
71304;DHT22;59091;47.446;19.148;2024-02-28T11:02:30;16.91;55.87
71304;DHT22;59091;47.446;19.148;2024-02-28T11:04:56;17.08;54.38
71304;DHT22;59091;47.446;19.148;2024-02-28T11:07:24;16.99;53.98
71304;DHT22;59091;47.446;19.148;2024-02-28T11:09:54;17.18;53.62
71304;DHT22;59091;47.446;19.148;2024-02-28T11:12:27;17.08;53.15
71304;DHT22;59091;47.446;19.148;2024-02-28T11:15:00;17.09;53.11
71304;DHT22;59091;47.446;19.148;2024-02-28T11:17:27;16.88;54.64
71304;DHT22;59091;47.446;19.148;2024-02-28T11:19:53;17.05;53.41
71304;DHT22;59091;47.446;19.148;2024-02-28T11:22:20;17.05;54.14
71304;DHT22;59091;47.446;19.148;2024-02-28T11:24:47;17.20;54.36
71304;DHT22;59091;47.446;19.148;2024-02-28T11:27:13;17.37;54.15
71304;DHT22;59091;47.446;19.148;2024-02-28T11:29:39;17.47;53.92
71304;DHT22;59091;47.446;19.148;2024-02-28T11:32:05;17.59;53.81
71304;DHT22;59091;47.446;19.148;2024-02-28T11:34:30;17.40;52.45
71304;DHT22;59091;47.446;19.148;2024-02-28T11:36:56;17.37;52.40
71304;DHT22;59091;47.446;19.148;2024-02-28T11:39:23;17.62;63.66
71304;DHT22;59091;47.446;19.148;2024-02-28T11:41:52;18.09;61.14
71304;DHT22;59091;47.446;19.148;2024-02-28T11:44:18;18.07;53.27
71304;DHT22;59091;47.446;19.148;2024-02-28T11:46:48;18.08;52.72
71304;DHT22;59091;47.446;19.148;2024-02-28T11:49:14;18.00;51.70
71304;DHT22;59091;47.446;19.148;2024-02-28T11:51:41;18.02;51.96
71304;DHT22;59091;47.446;19.148;2024-02-28T11:54:07;18.14;51.35
71304;DHT22;59091;47.446;19.148;2024-02-28T11:56:33;18.17;51.70
71304;DHT22;59091;47.446;19.148;2024-02-28T11:58:59;18.17;51.95
71304;DHT22;59091;47.446;19.148;2024-02-28T12:01:43;18.12;52.18
71304;DHT22;59091;47.446;19.148;2024-02-28T12:04:12;18.21;51.55
71304;DHT22;59091;47.446;19.148;2024-02-28T12:06:38;18.31;51.37
71304;DHT22;59091;47.446;19.148;2024-02-28T12:09:06;18.25;50.72
71304;DHT22;59091;47.446;19.148;2024-02-28T12:11:34;18.29;51.47
71304;DHT22;59091;47.446;19.148;2024-02-28T12:14:03;18.35;51.28
71304;DHT22;59091;47.446;19.148;2024-02-28T12:16:30;18.38;51.33
71304;DHT22;59091;47.446;19.148;2024-02-28T12:18:55;18.25;51.17
71304;DHT22;59091;47.446;19.148;2024-02-28T12:21:21;18.35;50.58
71304;DHT22;59091;47.446;19.148;2024-02-28T12:23:47;18.34;51.09
71304;DHT22;59091;47.446;19.148;2024-02-28T12:26:16;18.44;50.94
71304;DHT22;59091;47.446;19.148;2024-02-28T12:28:43;18.53;50.48
71304;DHT22;59091;47.446;19.148;2024-02-28T12:31:08;18.53;50.34
71304;DHT22;59091;47.446;19.148;2024-02-28T12:33:37;18.63;50.63
71304;DHT22;59091;47.446;19.148;2024-02-28T12:36:02;18.73;50.48
71304;DHT22;59091;47.446;19.148;2024-02-28T12:38:29;18.72;49.92
71304;DHT22;59091;47.446;19.148;2024-02-28T12:40:56;18.65;49.70
71304;DHT22;59091;47.446;19.148;2024-02-28T12:43:21;18.58;50.57
71304;DHT22;59091;47.446;19.148;2024-02-28T12:45:46;18.59;50.71
71304;DHT22;59091;47.446;19.148;2024-02-28T12:48:12;18.72;50.62
71304;DHT22;59091;47.446;19.148;2024-02-28T12:50:37;18.72;50.33
71304;DHT22;59091;47.446;19.148;2024-02-28T12:53:03;18.72;51.76
71304;DHT22;59091;47.446;19.148;2024-02-28T12:55:29;18.86;50.44
71304;DHT22;59091;47.446;19.148;2024-02-28T12:57:54;18.92;50.25
71304;DHT22;59091;47.446;19.148;2024-02-28T13:00:20;19.07;49.87
71304;DHT22;59091;47.446;19.148;2024-02-28T13:02:46;18.96;50.60
71304;DHT22;59091;47.446;19.148;2024-02-28T13:05:12;18.99;49.36
71304;DHT22;59091;47.446;19.148;2024-02-28T13:07:39;18.77;49.31
71304;DHT22;59091;47.446;19.148;2024-02-28T13:10:05;18.80;49.59
71304;DHT22;59091;47.446;19.148;2024-02-28T13:12:31;18.82;49.70
71304;DHT22;59091;47.446;19.148;2024-02-28T13:14:58;18.92;49.38
71304;DHT22;59091;47.446;19.148;2024-02-28T13:17:23;18.87;49.34
71304;DHT22;59091;47.446;19.148;2024-02-28T13:19:48;18.92;52.68
71304;DHT22;59091;47.446;19.148;2024-02-28T13:22:14;18.90;50.03
71304;DHT22;59091;47.446;19.148;2024-02-28T13:24:39;18.97;49.59
71304;DHT22;59091;47.446;19.148;2024-02-28T13:27:05;19.04;49.11
71304;DHT22;59091;47.446;19.148;2024-02-28T13:29:30;19.09;49.63
71304;DHT22;59091;47.446;19.148;2024-02-28T13:31:58;19.00;48.95
71304;DHT22;59091;47.446;19.148;2024-02-28T13:34:23;19.16;48.59
71304;DHT22;59091;47.446;19.148;2024-02-28T13:36:48;19.13;49.42
71304;DHT22;59091;47.446;19.148;2024-02-28T13:39:14;19.21;49.62
71304;DHT22;59091;47.446;19.148;2024-02-28T13:41:41;19.16;49.81
71304;DHT22;59091;47.446;19.148;2024-02-28T13:44:06;19.14;49.67
71304;DHT22;59091;47.446;19.148;2024-02-28T13:46:32;19.11;48.58
71304;DHT22;59091;47.446;19.148;2024-02-28T13:48:58;19.10;48.94
71304;DHT22;59091;47.446;19.148;2024-02-28T13:51:24;19.04;48.96
71304;DHT22;59091;47.446;19.148;2024-02-28T13:53:49;19.13;49.01
71304;DHT22;59091;47.446;19.148;2024-02-28T13:56:17;19.07;48.76
71304;DHT22;59091;47.446;19.148;2024-02-28T13:58:43;19.18;50.00
71304;DHT22;59091;47.446;19.148;2024-02-28T14:01:09;19.23;48.81
71304;DHT22;59091;47.446;19.148;2024-02-28T14:03:35;19.17;49.11
71304;DHT22;59091;47.446;19.148;2024-02-28T14:06:00;19.02;48.83
71304;DHT22;59091;47.446;19.148;2024-02-28T14:08:26;19.07;49.11
71304;DHT22;59091;47.446;19.148;2024-02-28T14:10:51;19.09;48.86
71304;DHT22;59091;47.446;19.148;2024-02-28T14:13:17;18.95;49.47
71304;DHT22;59091;47.446;19.148;2024-02-28T14:15:44;18.92;50.06
71304;DHT22;59091;47.446;19.148;2024-02-28T14:18:11;18.85;49.69
71304;DHT22;59091;47.446;19.148;2024-02-28T14:20:37;18.82;49.49
71304;DHT22;59091;47.446;19.148;2024-02-28T14:23:06;18.79;49.82
71304;DHT22;59091;47.446;19.148;2024-02-28T14:25:31;18.72;50.83
71304;DHT22;59091;47.446;19.148;2024-02-28T14:27:57;18.75;50.63
71304;DHT22;59091;47.446;19.148;2024-02-28T14:30:22;18.82;50.57
71304;DHT22;59091;47.446;19.148;2024-02-28T14:32:49;18.66;50.36
71304;DHT22;59091;47.446;19.148;2024-02-28T14:35:15;18.63;50.70
71304;DHT22;59091;47.446;19.148;2024-02-28T14:37:40;18.69;54.63
71304;DHT22;59091;47.446;19.148;2024-02-28T14:40:07;18.63;51.80
71304;DHT22;59091;47.446;19.148;2024-02-28T14:42:40;18.59;52.11
71304;DHT22;59091;47.446;19.148;2024-02-28T14:45:10;18.48;53.49
71304;DHT22;59091;47.446;19.148;2024-02-28T14:47:37;18.58;52.70
71304;DHT22;59091;47.446;19.148;2024-02-28T14:50:04;18.49;52.61
71304;DHT22;59091;47.446;19.148;2024-02-28T14:52:29;18.38;52.85
71304;DHT22;59091;47.446;19.148;2024-02-28T14:54:55;18.35;52.90
71304;DHT22;59091;47.446;19.148;2024-02-28T14:57:20;18.46;52.28
71304;DHT22;59091;47.446;19.148;2024-02-28T14:59:46;18.49;52.56
71304;DHT22;59091;47.446;19.148;2024-02-28T15:02:12;18.38;52.51
71304;DHT22;59091;47.446;19.148;2024-02-28T15:04:37;18.36;52.09
71304;DHT22;59091;47.446;19.148;2024-02-28T15:07:03;18.22;52.76
71304;DHT22;59091;47.446;19.148;2024-02-28T15:09:29;18.11;52.97